KEBG

South Texas International at Edinburg Airport

Edinburg, Texas, USA
METAR KEBG 230255Z AUTO 12006KT 10SM CLR 27/21 A2991 RMK AO2 T02650214
Observed Flight Rules
May-23 @ 02:55 UTC (14 minutes ago) Visual Flight Rules
Wind Visibility Clouds
120° at 6 knots 10 miles
  • Clear skies
Temperatures Readings
Current 27°C / 81°F
Dewpoint 21°C / 70°F
Humidity 70%
Altimeter 29.91" Hg
Pressure 1013 hPa
Elevation 24
METAR KEBG 230255Z AUTO 12006KT 10SM CLR 27/21 A2991 RMK AO2 T02650214
Observed Flight Rules
May-23 @ 02:55 UTC
(14 minutes ago)
VFR
Wind Visibility
120° at 6 knots 10 miles
Clouds
  • Clear skies
Temperature Dewpoint
27°C / 81°F 21°C / 70°F
Humidity Altimeter Pressure
70% 29.91" Hg 1013 hPa